Hovedside
METAR-TAF:

METAR-TAF

Lufthavner :

Oljeplattform

Norne Fpso, Norge

breddegrad: 66-01-48N, lengdegrad: 008-04-48E, høyde over havet: 10 m

Gjeldene værobservasjon

Denne rapporten ble laget for 31 minutter siden, klokken 21:50 UTC
Vind 31 kt fra Nord
Temperatur 2°C
Luftfuktighet 55%
Trykk 1011 hPa
Sikt 10 km eller mer

METAR: ENNE 242150Z AUTO 36031KT 9999NDV BKN036/// 02/M06 Q1011 W///S6

Tid: 23:21 (22:21 UTC)

Varsel

Denne rapporten ble laget for 5 timer og 23 minutter siden, klokken 16:58 UTC
Varsel gyldig fra 24. klokken 16 UTC til 24. klokken 18 UTC
Vind 28 kt fra Nord med vindkast opp mot 38 kt
Sikt 10 km eller mer
Få skyer i en høyde av 2000 ft
Spredte skyer i en høyde av 4000 ft
Sannsynlighet 30% :
Midlertidig
fra 24. klokken 16 UTC til 24. klokken 18 UTC
Sikt: 2000 m
i en høyde av 1400 ft
snøbyger, regn

TAF: ENNE 241658Z 2416/2418 36028G38KT 9999 FEW020 SCT040 PROB30 TEMPO 2416/2418 2000 SHSNRA VV014

Værobservasjoner og værvarsel for over 4000 flyplasser (METAR- og TAF-rapporter).

Tilgjengelige stasjoner er representert av de røde og gule prikkene på kartet.

Hold musepekeren over prikken for å se navnet på stasjonen.

Klikk så for å se værobservasjoner og -varsler.

For å forandre kartet kan du klikke på den grønne knappen med svart kryss for å zoome inn, på den grønne knappen med strek for å zoome ut, eller på de grønne pilene for å se tilstøtende kart.


METAR-TAF: